createdAt,value
2019-05-05T00:01:21.817Z,88.80
2019-05-05T00:04:10.314Z,88.70
2019-05-05T00:06:39.014Z,88.70
2019-05-05T00:09:07.889Z,89.10
2019-05-05T00:11:50.250Z,89.20
2019-05-05T00:14:29.477Z,89.40
2019-05-05T00:17:05.807Z,89.30
2019-05-05T00:19:35.877Z,89.40
2019-05-05T00:22:04.891Z,89.90
2019-05-05T00:24:35.092Z,89.80
2019-05-05T00:27:06.454Z,89.80
2019-05-05T00:29:35.163Z,89.80
2019-05-05T00:32:04.984Z,90.30
2019-05-05T00:34:35.021Z,90.30
2019-05-05T00:37:04.706Z,90.30
2019-05-05T00:39:34.449Z,90.50
2019-05-05T00:42:04.942Z,90.60
2019-05-05T00:44:35.218Z,90.60
2019-05-05T00:47:08.659Z,90.70
2019-05-05T00:49:46.361Z,90.90
2019-05-05T00:52:09.330Z,90.90
2019-05-05T00:54:37.970Z,90.90
2019-05-05T00:57:06.785Z,91.30
2019-05-05T00:59:35.409Z,91.30
2019-05-05T01:02:05.821Z,91.50
2019-05-05T01:04:44.425Z,91.20
2019-05-05T01:07:14.313Z,91.30
2019-05-05T01:09:45.123Z,91.50
2019-05-05T01:12:14.967Z,91.30
2019-05-05T01:14:44.797Z,91.30
2019-05-05T01:17:15.282Z,91.30
2019-05-05T01:19:46.696Z,91.40
2019-05-05T01:22:14.573Z,91.40
2019-05-05T01:24:45.746Z,91.40
2019-05-05T01:27:16.158Z,91.50
2019-05-05T01:29:45.287Z,91.40
2019-05-05T01:32:15.677Z,91.30
2019-05-05T01:34:45.928Z,91.50
2019-05-05T01:37:16.238Z,91.60
2019-05-05T01:39:55.599Z,92.10
2019-05-05T01:42:24.846Z,91.80
2019-05-05T01:44:55.272Z,91.90
2019-05-05T01:47:25.424Z,92.00
2019-05-05T01:49:54.545Z,92.00
2019-05-05T01:52:25.274Z,92.20
2019-05-05T01:54:54.813Z,92.20
2019-05-05T01:57:25.223Z,92.20
2019-05-05T01:59:55.254Z,92.00
2019-05-05T02:02:25.134Z,91.80
2019-05-05T02:04:55.553Z,92.20
2019-05-05T02:07:26.311Z,91.90
2019-05-05T02:09:55.468Z,91.90
2019-05-05T02:12:24.670Z,91.90
2019-05-05T02:14:55.236Z,92.10
2019-05-05T02:17:25.565Z,92.00
2019-05-05T02:19:55.070Z,92.00
2019-05-05T02:22:25.850Z,91.80
2019-05-05T02:24:55.116Z,91.70
2019-05-05T02:27:25.163Z,91.70
2019-05-05T02:30:05.791Z,91.60
2019-05-05T02:32:36.094Z,91.60
2019-05-05T02:35:08.801Z,91.70
2019-05-05T02:37:37.894Z,91.80
2019-05-05T02:40:09.007Z,91.70
2019-05-05T02:42:38.118Z,91.70
2019-05-05T02:45:09.040Z,91.80
2019-05-05T02:47:47.317Z,91.60
2019-05-05T02:50:17.582Z,91.60
2019-05-05T02:52:47.864Z,91.20
2019-05-05T02:55:18.320Z,91.20
2019-05-05T02:57:47.682Z,91.30
2019-05-05T03:00:24.215Z,91.10
2019-05-05T03:02:55.831Z,91.30
2019-05-05T03:05:25.170Z,91.30
2019-05-05T03:07:55.212Z,91.20
2019-05-05T03:10:25.302Z,91.30
2019-05-05T03:12:54.485Z,91.30
2019-05-05T03:15:55.048Z,91.40
2019-05-05T03:18:24.710Z,91.70
2019-05-05T03:21:03.894Z,91.50
2019-05-05T03:23:25.026Z,91.40
2019-05-05T03:25:54.557Z,91.20
2019-05-05T03:28:26.055Z,91.30
2019-05-05T03:30:55.715Z,91.70
2019-05-05T03:33:25.265Z,91.50
2019-05-05T03:35:54.406Z,91.40
2019-05-05T03:38:24.790Z,91.40
2019-05-05T03:40:55.529Z,91.50
2019-05-05T03:43:29.280Z,91.40
2019-05-05T03:46:00.858Z,91.40
2019-05-05T03:48:29.909Z,91.60
2019-05-05T03:50:59.460Z,91.80
2019-05-05T03:53:29.399Z,91.90
2019-05-05T03:55:59.267Z,91.90
2019-05-05T03:58:28.897Z,92.10
2019-05-05T04:01:28.124Z,92.10
2019-05-05T04:03:58.920Z,92.20
2019-05-05T04:06:38.228Z,92.20
2019-05-05T04:09:08.960Z,92.60
2019-05-05T04:11:38.448Z,92.50
2019-05-05T04:14:08.015Z,92.70
2019-05-05T04:16:39.712Z,92.80
2019-05-05T04:19:10.526Z,92.90
2019-05-05T04:21:39.790Z,92.90
2019-05-05T04:24:09.366Z,92.90
2019-05-05T04:26:38.968Z,92.90
2019-05-05T04:29:08.599Z,92.80
2019-05-05T04:31:38.182Z,93.00
2019-05-05T04:34:07.529Z,93.10
2019-05-05T04:36:38.838Z,92.90
2019-05-05T04:39:08.114Z,93.00
2019-05-05T04:41:37.762Z,93.10
2019-05-05T04:44:07.282Z,93.20
2019-05-05T04:46:36.659Z,93.40
2019-05-05T04:49:18.148Z,93.40
2019-05-05T04:51:50.378Z,93.30
2019-05-05T04:54:24.496Z,93.30
2019-05-05T04:56:54.117Z,93.00
2019-05-05T04:59:23.690Z,92.80
2019-05-05T05:01:55.937Z,92.50
2019-05-05T05:04:29.441Z,92.70
2019-05-05T05:07:00.447Z,92.20
2019-05-05T05:09:29.882Z,92.00
2019-05-05T05:11:59.585Z,91.90
2019-05-05T05:14:28.769Z,91.60
2019-05-05T05:16:59.834Z,91.70
2019-05-05T05:19:30.630Z,91.70
2019-05-05T05:22:02.213Z,91.60
2019-05-05T05:24:31.116Z,91.20
2019-05-05T05:27:05.047Z,91.60
2019-05-05T05:29:34.664Z,92.20
2019-05-05T05:32:04.419Z,91.80
2019-05-05T05:34:34.532Z,91.00
2019-05-05T05:37:04.323Z,90.80
2019-05-05T05:39:37.915Z,90.70
2019-05-05T05:42:07.266Z,90.20
2019-05-05T05:44:46.399Z,90.20
2019-05-05T05:47:17.128Z,90.20
2019-05-05T05:49:50.485Z,89.50
2019-05-05T05:52:21.005Z,89.30
2019-05-05T05:54:49.927Z,89.10
2019-05-05T05:57:19.493Z,88.90
2019-05-05T05:59:49.315Z,88.10
2019-05-05T06:02:18.850Z,87.60
2019-05-05T06:04:48.302Z,86.50
2019-05-05T06:07:17.826Z,85.90
2019-05-05T06:09:46.940Z,86.80
2019-05-05T06:12:17.558Z,86.90
2019-05-05T06:14:47.033Z,85.00
2019-05-05T06:17:16.900Z,84.90
2019-05-05T06:19:46.371Z,85.00
2019-05-05T06:22:28.098Z,85.40
2019-05-05T06:24:47.630Z,84.10
2019-05-05T06:27:16.955Z,84.60
2019-05-05T06:29:47.783Z,83.70
2019-05-05T06:32:17.127Z,84.10
2019-05-05T06:34:46.387Z,83.80
2019-05-05T06:37:15.827Z,83.60
2019-05-05T06:39:46.373Z,82.00
2019-05-05T06:42:35.840Z,82.90
2019-05-05T06:45:08.797Z,82.70
2019-05-05T06:47:39.820Z,81.20
2019-05-05T06:50:09.292Z,81.10
2019-05-05T06:52:44.279Z,80.60
2019-05-05T06:55:14.059Z,80.70
2019-05-05T06:57:44.432Z,81.30
2019-05-05T07:00:14.197Z,80.00
2019-05-05T07:02:44.422Z,80.20
2019-05-05T07:05:14.356Z,79.00
2019-05-05T07:07:43.752Z,77.60
2019-05-05T07:10:14.059Z,79.00
2019-05-05T07:12:44.047Z,78.90
2019-05-05T07:15:14.541Z,78.00
2019-05-05T07:17:44.363Z,76.70
2019-05-05T07:20:15.469Z,78.60
2019-05-05T07:22:58.019Z,78.10
2019-05-05T07:25:16.162Z,76.30
2019-05-05T07:27:45.677Z,76.20
2019-05-05T07:30:15.528Z,75.40
2019-05-05T07:32:45.232Z,75.50
2019-05-05T07:35:19.124Z,74.40
2019-05-05T07:37:48.724Z,72.90
2019-05-05T07:40:18.152Z,72.60
2019-05-05T07:42:48.195Z,73.80
2019-05-05T07:45:22.483Z,72.70
2019-05-05T07:47:48.426Z,71.20
2019-05-05T07:50:28.427Z,72.10
2019-05-05T07:52:49.097Z,70.80
2019-05-05T07:55:18.585Z,70.00
2019-05-05T07:57:47.714Z,69.10
2019-05-05T08:00:17.991Z,68.30
2019-05-05T08:02:47.603Z,66.00
2019-05-05T08:05:16.969Z,67.60
2019-05-05T08:07:46.337Z,65.40
2019-05-05T08:10:16.348Z,64.40
2019-05-05T08:12:45.934Z,66.90
2019-05-05T08:15:16.979Z,65.50
2019-05-05T08:17:56.873Z,65.90
2019-05-05T08:20:34.287Z,64.20
2019-05-05T08:23:08.172Z,60.80
2019-05-05T08:25:40.317Z,60.40
2019-05-05T08:28:14.721Z,59.10
2019-05-05T08:30:49.571Z,57.90
2019-05-05T08:33:18.938Z,58.40
2019-05-05T08:35:48.279Z,58.80
2019-05-05T08:38:17.621Z,60.10
2019-05-05T08:40:46.948Z,60.40
2019-05-05T08:43:16.315Z,61.20
2019-05-05T08:45:45.721Z,59.80
2019-05-05T08:48:15.092Z,59.60
2019-05-05T08:50:44.703Z,57.40
2019-05-05T08:53:14.158Z,57.40
2019-05-05T08:55:44.256Z,58.00
2019-05-05T08:58:14.887Z,59.70
2019-05-05T09:00:44.620Z,60.40
2019-05-05T09:03:14.174Z,56.90
2019-05-05T09:05:44.868Z,54.30
2019-05-05T09:08:17.149Z,52.00
2019-05-05T09:10:46.256Z,49.50
2019-05-05T09:13:16.050Z,47.40
2019-05-05T09:15:46.219Z,44.80
2019-05-05T09:18:15.271Z,42.90
2019-05-05T09:20:44.787Z,42.70
2019-05-05T09:23:14.767Z,41.50
2019-05-05T09:25:45.727Z,40.30
2019-05-05T09:28:16.735Z,43.10
2019-05-05T09:30:47.771Z,46.00
2019-05-05T09:33:18.430Z,47.40
2019-05-05T09:35:48.160Z,46.90
2019-05-05T09:38:18.058Z,46.00
2019-05-05T09:40:47.619Z,46.00
2019-05-05T09:43:17.007Z,47.60
2019-05-05T09:45:46.241Z,48.20
2019-05-05T09:48:15.683Z,45.60
2019-05-05T09:50:44.902Z,45.30
2019-05-05T09:53:14.670Z,44.60
2019-05-05T09:55:44.539Z,43.60
2019-05-05T09:58:16.251Z,42.40
2019-05-05T10:00:46.933Z,43.10
2019-05-05T10:03:16.190Z,41.00
2019-05-05T10:05:46.040Z,39.20
2019-05-05T10:08:15.318Z,40.00
2019-05-05T10:10:44.656Z,42.10
2019-05-05T10:13:15.018Z,46.50
2019-05-05T10:15:44.680Z,51.10
2019-05-05T10:18:14.373Z,53.50
2019-05-05T10:20:46.155Z,54.10
2019-05-05T10:23:15.601Z,54.90
2019-05-05T10:25:46.956Z,55.20
2019-05-05T10:28:16.477Z,53.10
2019-05-05T10:30:46.032Z,48.80
2019-05-05T10:33:15.019Z,45.70
2019-05-05T10:35:44.786Z,42.40
2019-05-05T10:38:14.451Z,38.80
2019-05-05T10:40:44.624Z,36.70
2019-05-05T10:43:14.953Z,38.40
2019-05-05T10:45:46.123Z,36.70
2019-05-05T10:48:15.479Z,34.10
2019-05-05T10:50:45.221Z,33.60
2019-05-05T10:53:14.550Z,36.40
2019-05-05T10:55:44.984Z,36.30
2019-05-05T10:58:14.764Z,38.20
2019-05-05T11:00:46.920Z,40.90
2019-05-05T11:03:16.703Z,41.60
2019-05-05T11:05:46.690Z,43.60
2019-05-05T11:08:16.330Z,46.00
2019-05-05T11:10:45.805Z,45.40
2019-05-05T11:13:15.577Z,42.40
2019-05-05T11:15:44.921Z,40.20
2019-05-05T11:18:15.036Z,40.50
2019-05-05T11:20:45.151Z,42.20
2019-05-05T11:23:15.086Z,42.40
2019-05-05T11:25:45.054Z,44.30
2019-05-05T11:28:14.667Z,44.30
2019-05-05T11:30:47.052Z,44.90
2019-05-05T11:33:34.669Z,43.80
2019-05-05T11:36:13.474Z,42.60
2019-05-05T11:38:44.373Z,39.50
2019-05-05T11:41:14.351Z,38.70
2019-05-05T11:43:47.469Z,39.40
2019-05-05T11:46:16.856Z,38.40
2019-05-05T11:48:46.261Z,39.60
2019-05-05T11:51:15.701Z,41.00
2019-05-05T11:53:45.326Z,39.40
2019-05-05T11:56:14.938Z,40.50
2019-05-05T11:58:44.416Z,41.30
2019-05-05T12:01:14.412Z,41.00
2019-05-05T12:03:44.321Z,39.50
2019-05-05T12:06:14.772Z,41.60
2019-05-05T12:08:46.325Z,41.60
2019-05-05T12:11:15.754Z,40.10
2019-05-05T12:13:45.005Z,38.80
2019-05-05T12:16:15.607Z,38.30
2019-05-05T12:18:45.034Z,38.50
2019-05-05T12:21:14.259Z,40.30
2019-05-05T12:23:44.524Z,41.00
2019-05-05T12:26:24.824Z,37.90
2019-05-05T12:28:59.297Z,35.30
2019-05-05T12:31:30.202Z,36.50
2019-05-05T12:34:01.126Z,37.70
2019-05-05T12:36:30.353Z,40.20
2019-05-05T12:39:00.041Z,40.90
2019-05-05T12:41:29.649Z,39.50
2019-05-05T12:43:58.960Z,37.60
2019-05-05T12:46:34.328Z,37.80
2019-05-05T12:49:05.131Z,36.80
2019-05-05T12:51:34.422Z,37.20
2019-05-05T12:54:54.631Z,35.80
2019-05-05T12:57:24.444Z,34.00
2019-05-05T12:59:53.761Z,32.30
2019-05-05T13:02:23.580Z,33.50
2019-05-05T13:04:53.466Z,32.70
2019-05-05T13:07:24.296Z,34.60
2019-05-05T13:09:54.541Z,34.70
2019-05-05T13:12:24.626Z,36.70
2019-05-05T13:14:54.577Z,36.10
2019-05-05T13:17:25.201Z,36.40
2019-05-05T13:19:55.878Z,33.70
2019-05-05T13:22:28.443Z,33.40
2019-05-05T13:25:14.862Z,31.10
2019-05-05T13:27:45.600Z,32.60
2019-05-05T13:30:14.854Z,32.70
2019-05-05T13:32:44.110Z,33.50
2019-05-05T13:35:14.331Z,34.00
2019-05-05T13:37:44.729Z,35.60
2019-05-05T13:40:14.169Z,38.00
2019-05-05T13:42:43.956Z,39.70
2019-05-05T13:45:14.992Z,40.90
2019-05-05T13:47:45.266Z,41.30
2019-05-05T13:50:23.446Z,42.30
2019-05-05T13:52:52.724Z,42.70
2019-05-05T13:55:24.113Z,42.30
2019-05-05T13:57:54.833Z,44.30
2019-05-05T14:00:25.618Z,49.70
2019-05-05T14:02:55.065Z,44.50
2019-05-05T14:05:24.336Z,38.90
2019-05-05T14:07:53.755Z,35.90
2019-05-05T14:10:23.646Z,36.00
2019-05-05T14:12:54.441Z,31.30
2019-05-05T14:15:23.641Z,31.50
2019-05-05T14:17:54.367Z,34.50
2019-05-05T14:20:23.965Z,35.60
2019-05-05T14:22:54.349Z,38.50
2019-05-05T14:25:28.189Z,40.00
2019-05-05T14:27:57.344Z,42.50
2019-05-05T14:30:37.613Z,42.90
2019-05-05T14:33:08.145Z,43.10
2019-05-05T14:35:38.910Z,44.50
2019-05-05T14:38:09.840Z,44.70
2019-05-05T14:40:39.113Z,46.50
2019-05-05T14:43:08.258Z,47.70
2019-05-05T14:45:37.357Z,49.20
2019-05-05T14:48:06.573Z,49.30
2019-05-05T14:50:37.137Z,50.60
2019-05-05T14:53:09.112Z,51.00
2019-05-05T14:55:38.476Z,51.60
2019-05-05T14:58:07.412Z,51.90
2019-05-05T15:00:39.384Z,51.40
2019-05-05T15:03:08.743Z,52.10
2019-05-05T15:05:39.326Z,52.30
2019-05-05T15:08:10.072Z,52.10
2019-05-05T15:10:56.940Z,50.30
2019-05-05T15:13:26.329Z,48.60
2019-05-05T15:15:55.498Z,47.40
2019-05-05T15:18:24.807Z,48.00
2019-05-05T15:20:55.026Z,46.70
2019-05-05T15:23:25.195Z,46.00
2019-05-05T15:25:54.500Z,45.90
2019-05-05T15:28:24.472Z,46.70
2019-05-05T15:30:54.521Z,47.00
2019-05-05T15:33:24.306Z,48.70
2019-05-05T15:35:54.185Z,50.20
2019-05-05T15:38:24.415Z,52.00
2019-05-05T15:40:54.680Z,52.30
2019-05-05T15:43:24.387Z,51.30
2019-05-05T15:45:53.960Z,52.90
2019-05-05T15:48:24.294Z,51.20
2019-05-05T15:50:55.038Z,49.60
2019-05-05T15:53:25.038Z,51.10
2019-05-05T15:55:54.873Z,50.90
2019-05-05T15:58:24.169Z,51.20
2019-05-05T16:00:53.843Z,51.60
2019-05-05T16:03:23.235Z,50.80
2019-05-05T16:05:54.320Z,50.70
2019-05-05T16:08:23.670Z,50.90
2019-05-05T16:10:55.048Z,51.30
2019-05-05T16:13:26.168Z,50.90
2019-05-05T16:15:56.932Z,48.90
2019-05-05T16:18:27.592Z,48.40
2019-05-05T16:21:03.513Z,48.50
2019-05-05T16:23:54.181Z,48.90
2019-05-05T16:26:24.579Z,47.20
2019-05-05T16:28:55.269Z,46.70
2019-05-05T16:31:27.494Z,47.20
2019-05-05T16:33:55.750Z,45.60
2019-05-05T16:36:25.407Z,44.90
2019-05-05T16:38:55.609Z,45.60
2019-05-05T16:41:24.989Z,45.70
2019-05-05T16:43:54.222Z,46.40
2019-05-05T16:46:23.944Z,47.30
2019-05-05T16:48:54.095Z,48.20
2019-05-05T16:51:25.779Z,47.60
2019-05-05T16:53:56.683Z,47.60
2019-05-05T16:56:25.093Z,48.00
2019-05-05T16:58:54.352Z,48.90
2019-05-05T17:01:23.710Z,49.00
2019-05-05T17:03:54.280Z,49.50
2019-05-05T17:06:24.390Z,51.70
2019-05-05T17:08:53.707Z,53.40
2019-05-05T17:11:24.524Z,54.50
2019-05-05T17:13:58.487Z,54.90
2019-05-05T17:16:45.929Z,55.30
2019-05-05T17:19:18.303Z,55.30
2019-05-05T17:22:05.144Z,54.90
2019-05-05T17:24:34.523Z,55.00
2019-05-05T17:27:03.612Z,55.00
2019-05-05T17:29:34.481Z,55.50
2019-05-05T17:32:05.226Z,55.50
2019-05-05T17:34:37.914Z,55.90
2019-05-05T17:37:07.709Z,56.40
2019-05-05T17:39:38.954Z,56.30
2019-05-05T17:42:25.906Z,57.10
2019-05-05T17:44:56.877Z,57.00
2019-05-05T17:47:30.539Z,57.90
2019-05-05T17:50:01.188Z,57.90
2019-05-05T17:52:36.546Z,57.60
2019-05-05T17:55:24.574Z,58.20
2019-05-05T17:58:01.675Z,58.60
2019-05-05T18:00:27.232Z,58.40
2019-05-05T18:02:56.520Z,58.80
2019-05-05T18:05:44.751Z,60.10
2019-05-05T18:08:15.537Z,59.20
2019-05-05T18:10:46.245Z,58.40
2019-05-05T18:13:23.187Z,58.30
2019-05-05T18:15:56.779Z,58.20
2019-05-05T18:18:25.988Z,58.50
2019-05-05T18:20:55.135Z,59.30
2019-05-05T18:23:25.628Z,59.90
2019-05-05T18:25:56.042Z,60.90
2019-05-05T18:28:25.281Z,62.00
2019-05-05T18:30:54.658Z,62.00
2019-05-05T18:33:24.639Z,62.40
2019-05-05T18:35:54.144Z,63.00
2019-05-05T18:38:23.665Z,63.30
2019-05-05T18:40:55.430Z,62.30
2019-05-05T18:43:25.248Z,60.30
2019-05-05T18:46:04.801Z,62.20
2019-05-05T18:48:34.552Z,62.60
2019-05-05T18:51:04.065Z,62.30
2019-05-05T18:53:34.179Z,61.80
2019-05-05T18:56:04.527Z,61.60
2019-05-05T18:58:34.641Z,60.90
2019-05-05T19:01:05.301Z,61.40
2019-05-05T19:03:46.325Z,61.00
2019-05-05T19:06:17.349Z,59.90
2019-05-05T19:08:54.256Z,59.40
2019-05-05T19:11:19.844Z,59.60
2019-05-05T19:13:48.985Z,59.30
2019-05-05T19:16:18.136Z,59.40
2019-05-05T19:18:47.363Z,59.70
2019-05-05T19:21:17.763Z,60.50
2019-05-05T19:23:47.032Z,60.40
2019-05-05T19:26:16.215Z,61.70
2019-05-05T19:28:49.885Z,62.30
2019-05-05T19:31:15.612Z,62.30
2019-05-05T19:33:44.236Z,62.20
2019-05-05T19:36:14.681Z,62.00
2019-05-05T19:38:44.174Z,62.00
2019-05-05T19:41:14.412Z,62.10
2019-05-05T19:43:55.041Z,62.00
2019-05-05T19:46:26.365Z,62.90
2019-05-05T19:49:07.189Z,62.80
2019-05-05T19:51:38.920Z,62.80
2019-05-05T19:54:06.968Z,62.30
2019-05-05T19:56:37.356Z,63.00
2019-05-05T19:59:08.147Z,62.90
2019-05-05T20:01:39.784Z,63.20
2019-05-05T20:04:09.689Z,63.40
2019-05-05T20:06:38.376Z,63.50
2019-05-05T20:09:08.473Z,63.20
2019-05-05T20:11:38.236Z,64.10
2019-05-05T20:14:10.179Z,64.00
2019-05-05T20:16:44.958Z,64.40
2019-05-05T20:19:15.003Z,65.00
2019-05-05T20:21:44.029Z,65.60
2019-05-05T20:24:14.533Z,65.90
2019-05-05T20:26:43.266Z,66.10
2019-05-05T20:29:16.542Z,66.90
2019-05-05T20:31:42.660Z,67.70
2019-05-05T20:34:16.032Z,67.40
2019-05-05T20:37:04.400Z,67.60
2019-05-05T20:39:35.525Z,67.30
2019-05-05T20:42:04.440Z,67.30
2019-05-05T20:44:34.215Z,67.30
2019-05-05T20:47:04.511Z,68.00
2019-05-05T20:49:34.616Z,66.90
2019-05-05T20:52:03.844Z,66.50
2019-05-05T20:54:33.005Z,66.50
2019-05-05T20:57:01.732Z,66.10
2019-05-05T20:59:31.327Z,66.80
2019-05-05T21:02:00.951Z,66.10
2019-05-05T21:04:29.595Z,66.20
2019-05-05T21:06:58.249Z,66.60
2019-05-05T21:09:27.099Z,66.60
2019-05-05T21:11:56.026Z,67.40
2019-05-05T21:14:34.486Z,68.40
2019-05-05T21:16:55.510Z,69.10
2019-05-05T21:19:25.993Z,70.30
2019-05-05T21:21:56.263Z,71.40
2019-05-05T21:24:25.170Z,72.00
2019-05-05T21:26:55.518Z,72.70
2019-05-05T21:29:24.202Z,73.10
2019-05-05T21:31:54.817Z,73.50
2019-05-05T21:34:24.789Z,73.90
2019-05-05T21:36:54.130Z,74.70
2019-05-05T21:39:25.053Z,75.10
2019-05-05T21:41:53.417Z,75.30
2019-05-05T21:44:22.206Z,75.40
2019-05-05T21:46:53.791Z,75.60
2019-05-05T21:49:25.544Z,76.00
2019-05-05T21:52:07.677Z,75.90
2019-05-05T21:54:37.095Z,76.10
2019-05-05T21:57:23.767Z,76.70
2019-05-05T21:59:58.039Z,77.00
2019-05-05T22:02:24.472Z,77.20
2019-05-05T22:04:54.388Z,77.20
2019-05-05T22:07:24.135Z,77.00
2019-05-05T22:09:54.532Z,76.80
2019-05-05T22:12:24.344Z,76.70
2019-05-05T22:14:55.090Z,76.70
2019-05-05T22:17:23.707Z,77.60
2019-05-05T22:20:09.580Z,76.50
2019-05-05T22:22:39.891Z,76.60
2019-05-05T22:25:11.389Z,77.00
2019-05-05T22:27:40.137Z,77.10
2019-05-05T22:30:10.476Z,77.70
2019-05-05T22:32:43.953Z,78.80
2019-05-05T22:35:14.077Z,78.30
2019-05-05T22:37:43.979Z,78.60
2019-05-05T22:40:21.058Z,79.10
2019-05-05T22:42:51.501Z,79.40
2019-05-05T22:45:24.002Z,79.70
2019-05-05T22:47:54.300Z,79.70
2019-05-05T22:50:24.841Z,80.10
2019-05-05T22:52:56.368Z,80.20
2019-05-05T22:55:25.184Z,80.40
2019-05-05T22:57:54.555Z,80.30
2019-05-05T23:00:29.238Z,80.70
2019-05-05T23:02:57.600Z,80.60
2019-05-05T23:05:37.330Z,80.70
2019-05-05T23:08:08.169Z,80.40
2019-05-05T23:10:37.166Z,80.50
2019-05-05T23:13:05.883Z,80.70
2019-05-05T23:15:36.433Z,80.80
2019-05-05T23:18:17.613Z,80.80
2019-05-05T23:21:07.301Z,80.90
2019-05-05T23:23:50.146Z,80.90
2019-05-05T23:26:35.674Z,80.70
2019-05-05T23:29:03.307Z,80.90
2019-05-05T23:31:33.551Z,81.10
2019-05-05T23:34:03.965Z,81.10
2019-05-05T23:36:33.935Z,81.20
2019-05-05T23:39:05.008Z,81.10
2019-05-05T23:41:34.837Z,81.30
2019-05-05T23:44:05.042Z,81.10
2019-05-05T23:46:34.941Z,81.00
2019-05-05T23:49:04.251Z,81.00
2019-05-05T23:51:34.846Z,80.50
2019-05-05T23:54:04.275Z,80.30
2019-05-05T23:56:35.169Z,80.40
2019-05-05T23:59:04.394Z,80.50
